HAZ3134 ZSCN-ZGSZ
Flight info
| Callsign | HAZ3134 |
|---|---|
| Flight time | 1h 13m |
| Altitude | 36100 |
| Route | OSO93D OSONO W19 ATKAV W20 SALIV R473 NOLON W90 POU/K0861S1130 W7 SAREX SAREX4 |
| Aircraft | B738/M-SDE2E3FGHIRWXY/LB1 |
Departure
| Time | 2026-04-16 05:14 |
|---|---|
| Airport | Nanchang Changbei International Airport (ZSCN) |
Arrival
| Time | 2026-04-16 06:27 |
|---|---|
| Airport | Shenzhen Bao'an International Airport (ZGSZ) |
| Time | Latitude | Longitude | Altitude | Speed | Heading |
|---|---|---|---|---|---|
| 2026-04-16 05:03 | 28.86612 | 115.90945 | 153 ft | 0 kts | 86° |
| 2026-04-16 05:04 | 28.86611 | 115.90931 | 153 ft | 2 kts | 86° |
| 2026-04-16 05:04 | 28.86612 | 115.90913 | 153 ft | 2 kts | 107° |
| 2026-04-16 05:04 | 28.86618 | 115.90897 | 153 ft | 2 kts | 122° |
| 2026-04-16 05:04 | 28.86628 | 115.90884 | 153 ft | 2 kts | 137° |
| 2026-04-16 05:05 | 28.86640 | 115.90874 | 153 ft | 2 kts | 154° |
| 2026-04-16 05:05 | 28.86654 | 115.90868 | 153 ft | 2 kts | 169° |
| 2026-04-16 05:05 | 28.86663 | 115.90867 | 153 ft | 1 kts | 179° |
| 2026-04-16 05:05 | 28.86667 | 115.90867 | 153 ft | 0 kts | 178° |
| 2026-04-16 05:07 | 28.86666 | 115.90867 | 153 ft | 0 kts | 178° |
| 2026-04-16 05:08 | 28.86637 | 115.90868 | 153 ft | 6 kts | 179° |
| 2026-04-16 05:08 | 28.86604 | 115.90842 | 153 ft | 5 kts | 244° |
| 2026-04-16 05:08 | 28.86578 | 115.90797 | 153 ft | 9 kts | 222° |
| 2026-04-16 05:08 | 28.86492 | 115.90750 | 153 ft | 17 kts | 204° |
| 2026-04-16 05:09 | 28.86370 | 115.90684 | 153 ft | 18 kts | 215° |
| 2026-04-16 05:09 | 28.86372 | 115.90562 | 153 ft | 16 kts | 295° |
| 2026-04-16 05:09 | 28.86398 | 115.90447 | 153 ft | 14 kts | 244° |
| 2026-04-16 05:09 | 28.86314 | 115.90391 | 153 ft | 16 kts | 202° |
| 2026-04-16 05:10 | 28.86193 | 115.90332 | 153 ft | 20 kts | 204° |
| 2026-04-16 05:10 | 28.86067 | 115.90271 | 153 ft | 19 kts | 204° |
| 2026-04-16 05:10 | 28.85945 | 115.90213 | 153 ft | 18 kts | 202° |
| 2026-04-16 05:10 | 28.85831 | 115.90157 | 153 ft | 17 kts | 204° |
| 2026-04-16 05:11 | 28.85724 | 115.90105 | 153 ft | 16 kts | 203° |
| 2026-04-16 05:11 | 28.85624 | 115.90056 | 153 ft | 15 kts | 203° |
| 2026-04-16 05:11 | 28.85526 | 115.90009 | 153 ft | 15 kts | 204° |
| 2026-04-16 05:11 | 28.85427 | 115.89960 | 153 ft | 15 kts | 203° |
| 2026-04-16 05:12 | 28.85331 | 115.89913 | 153 ft | 14 kts | 203° |
| 2026-04-16 05:12 | 28.85239 | 115.89869 | 153 ft | 13 kts | 203° |
| 2026-04-16 05:12 | 28.85152 | 115.89826 | 153 ft | 12 kts | 202° |
| 2026-04-16 05:12 | 28.85072 | 115.89788 | 153 ft | 11 kts | 203° |
| 2026-04-16 05:13 | 28.85030 | 115.89730 | 153 ft | 9 kts | 271° |
| 2026-04-16 05:13 | 28.85052 | 115.89662 | 153 ft | 8 kts | 294° |
| 2026-04-16 05:13 | 28.85105 | 115.89603 | 153 ft | 12 kts | 351° |
| 2026-04-16 05:13 | 28.85185 | 115.89632 | 153 ft | 13 kts | 22° |
| 2026-04-16 05:14 | 28.85393 | 115.89732 | 153 ft | 64 kts | 22° |
| 2026-04-16 05:14 | 28.86028 | 115.90041 | 153 ft | 128 kts | 23° |
| 2026-04-16 05:14 | 28.86992 | 115.90517 | 256 ft | 167 kts | 22° |
| 2026-04-16 05:14 | 28.88060 | 115.91032 | 917 ft | 169 kts | 21° |
| 2026-04-16 05:15 | 28.89173 | 115.91526 | 1527 ft | 174 kts | 18° |
| 2026-04-16 05:15 | 28.90327 | 115.92017 | 2048 ft | 181 kts | 19° |
| 2026-04-16 05:15 | 28.91588 | 115.92606 | 2351 ft | 203 kts | 22° |
| 2026-04-16 05:15 | 28.92932 | 115.93262 | 2759 ft | 219 kts | 22° |
| 2026-04-16 05:16 | 28.94398 | 115.93972 | 3274 ft | 233 kts | 22° |
| 2026-04-16 05:16 | 28.95908 | 115.94693 | 3947 ft | 235 kts | 22° |
| 2026-04-16 05:16 | 28.97392 | 115.95442 | 4693 ft | 235 kts | 22° |
| 2026-04-16 05:16 | 28.98895 | 115.96182 | 5411 ft | 235 kts | 21° |
| 2026-04-16 05:17 | 29.00415 | 115.96909 | 6088 ft | 239 kts | 20° |
| 2026-04-16 05:17 | 29.02018 | 115.97428 | 6680 ft | 242 kts | 358° |
| 2026-04-16 05:17 | 29.03637 | 115.97027 | 7308 ft | 239 kts | 328° |
| 2026-04-16 05:17 | 29.04948 | 115.95860 | 7993 ft | 237 kts | 308° |
| 2026-04-16 05:18 | 29.05916 | 115.94363 | 8703 ft | 236 kts | 296° |
| 2026-04-16 05:18 | 29.06450 | 115.92611 | 9368 ft | 235 kts | 272° |
| 2026-04-16 05:18 | 29.06256 | 115.90778 | 10069 ft | 234 kts | 251° |
| 2026-04-16 05:18 | 29.05585 | 115.89082 | 10853 ft | 233 kts | 239° |
| 2026-04-16 05:19 | 29.04498 | 115.87717 | 11569 ft | 238 kts | 216° |
| 2026-04-16 05:19 | 29.02955 | 115.86990 | 12246 ft | 247 kts | 195° |
| 2026-04-16 05:19 | 29.01181 | 115.86899 | 12891 ft | 258 kts | 184° |
| 2026-04-16 05:19 | 28.99372 | 115.86941 | 13544 ft | 258 kts | 192° |
| 2026-04-16 05:20 | 28.97635 | 115.86546 | 14204 ft | 254 kts | 205° |
| 2026-04-16 05:20 | 28.95992 | 115.85845 | 14932 ft | 252 kts | 210° |
| 2026-04-16 05:20 | 28.94370 | 115.85034 | 15555 ft | 256 kts | 212° |
| 2026-04-16 05:20 | 28.92717 | 115.84171 | 15967 ft | 269 kts | 211° |
| 2026-04-16 05:21 | 28.90933 | 115.83266 | 16391 ft | 284 kts | 210° |
| 2026-04-16 05:21 | 28.89095 | 115.82365 | 16806 ft | 297 kts | 210° |
| 2026-04-16 05:21 | 28.87138 | 115.81421 | 17164 ft | 311 kts | 209° |
| 2026-04-16 05:21 | 28.85091 | 115.80442 | 17562 ft | 324 kts | 209° |
| 2026-04-16 05:22 | 28.82944 | 115.79414 | 17891 ft | 338 kts | 209° |
| 2026-04-16 05:22 | 28.80721 | 115.78345 | 18212 ft | 352 kts | 208° |
| 2026-04-16 05:22 | 28.78426 | 115.77230 | 18531 ft | 365 kts | 208° |
| 2026-04-16 05:22 | 28.76052 | 115.76074 | 18774 ft | 380 kts | 208° |
| 2026-04-16 05:23 | 28.73557 | 115.74864 | 19092 ft | 391 kts | 208° |
| 2026-04-16 05:23 | 28.71022 | 115.73644 | 19614 ft | 396 kts | 207° |
| 2026-04-16 05:23 | 28.68444 | 115.72409 | 20337 ft | 396 kts | 207° |
| 2026-04-16 05:23 | 28.65912 | 115.71196 | 20859 ft | 400 kts | 207° |
| 2026-04-16 05:24 | 28.63324 | 115.69955 | 21479 ft | 401 kts | 207° |
| 2026-04-16 05:24 | 28.60708 | 115.68697 | 22009 ft | 405 kts | 207° |
| 2026-04-16 05:24 | 28.58111 | 115.67445 | 22531 ft | 408 kts | 207° |
| 2026-04-16 05:24 | 28.55483 | 115.66180 | 23073 ft | 411 kts | 207° |
| 2026-04-16 05:25 | 28.52824 | 115.64901 | 23591 ft | 414 kts | 207° |
| 2026-04-16 05:25 | 28.50150 | 115.63616 | 24144 ft | 416 kts | 207° |
| 2026-04-16 05:25 | 28.47446 | 115.62318 | 24595 ft | 421 kts | 207° |
| 2026-04-16 05:25 | 28.44664 | 115.61090 | 25178 ft | 425 kts | 204° |
| 2026-04-16 05:26 | 28.41800 | 115.60184 | 25549 ft | 436 kts | 196° |
| 2026-04-16 05:26 | 28.38730 | 115.59783 | 26072 ft | 444 kts | 188° |
| 2026-04-16 05:26 | 28.35603 | 115.59881 | 26548 ft | 453 kts | 181° |
| 2026-04-16 05:26 | 28.32434 | 115.60383 | 27009 ft | 461 kts | 175° |
| 2026-04-16 05:27 | 28.29226 | 115.61210 | 27378 ft | 469 kts | 171° |
| 2026-04-16 05:27 | 28.26031 | 115.62257 | 27826 ft | 474 kts | 169° |
| 2026-04-16 05:27 | 28.22880 | 115.63399 | 28290 ft | 477 kts | 168° |
| 2026-04-16 05:27 | 28.19697 | 115.64605 | 28833 ft | 477 kts | 167° |
| 2026-04-16 05:28 | 28.16551 | 115.65810 | 29491 ft | 474 kts | 167° |
| 2026-04-16 05:28 | 28.13437 | 115.66997 | 30217 ft | 469 kts | 168° |
| 2026-04-16 05:28 | 28.10304 | 115.68177 | 30842 ft | 466 kts | 168° |
| 2026-04-16 05:28 | 28.07216 | 115.69323 | 31305 ft | 466 kts | 168° |
| 2026-04-16 05:29 | 28.04146 | 115.70420 | 31820 ft | 463 kts | 170° |
| 2026-04-16 05:29 | 28.01033 | 115.71364 | 32387 ft | 456 kts | 174° |
| 2026-04-16 05:29 | 27.97870 | 115.71954 | 32862 ft | 449 kts | 181° |
| 2026-04-16 05:29 | 27.94745 | 115.72139 | 33329 ft | 441 kts | 187° |
| 2026-04-16 05:30 | 27.91694 | 115.71929 | 33787 ft | 434 kts | 194° |
| 2026-04-16 05:30 | 27.88708 | 115.71326 | 34308 ft | 425 kts | 200° |
| 2026-04-16 05:30 | 27.85872 | 115.70359 | 34796 ft | 417 kts | 206° |
| 2026-04-16 05:30 | 27.83179 | 115.69141 | 35321 ft | 411 kts | 210° |
| 2026-04-16 05:31 | 27.80546 | 115.67844 | 35815 ft | 408 kts | 210° |
| 2026-04-16 05:31 | 27.77942 | 115.66569 | 35992 ft | 411 kts | 210° |
| 2026-04-16 05:31 | 27.75287 | 115.65321 | 36008 ft | 413 kts | 209° |
| 2026-04-16 05:32 | 27.69932 | 115.62959 | 36004 ft | 409 kts | 207° |
| 2026-04-16 05:32 | 27.64526 | 115.60696 | 36002 ft | 413 kts | 207° |
| 2026-04-16 05:33 | 27.59080 | 115.58472 | 35999 ft | 412 kts | 206° |
| 2026-04-16 05:33 | 27.53626 | 115.56267 | 35991 ft | 412 kts | 206° |
| 2026-04-16 05:34 | 27.48192 | 115.54076 | 35993 ft | 413 kts | 207° |
| 2026-04-16 05:34 | 27.42778 | 115.51894 | 35991 ft | 412 kts | 206° |
| 2026-04-16 05:35 | 27.37318 | 115.49702 | 35989 ft | 413 kts | 207° |
| 2026-04-16 05:35 | 27.31886 | 115.47517 | 35984 ft | 412 kts | 207° |
| 2026-04-16 05:36 | 27.26413 | 115.45318 | 35989 ft | 413 kts | 206° |
| 2026-04-16 05:36 | 27.20975 | 115.43142 | 35983 ft | 414 kts | 206° |
| 2026-04-16 05:37 | 27.15500 | 115.40958 | 35984 ft | 413 kts | 206° |
| 2026-04-16 05:37 | 27.10042 | 115.38770 | 35983 ft | 413 kts | 206° |
| 2026-04-16 05:38 | 27.04601 | 115.36599 | 35988 ft | 412 kts | 206° |
| 2026-04-16 05:38 | 26.99122 | 115.34412 | 35999 ft | 415 kts | 206° |
| 2026-04-16 05:39 | 26.93629 | 115.32223 | 36003 ft | 415 kts | 206° |
| 2026-04-16 05:39 | 26.88135 | 115.30035 | 36007 ft | 416 kts | 206° |
| 2026-04-16 05:40 | 26.82638 | 115.27846 | 36008 ft | 416 kts | 206° |
| 2026-04-16 05:40 | 26.77192 | 115.25684 | 36007 ft | 414 kts | 206° |
| 2026-04-16 05:41 | 26.71725 | 115.23499 | 36008 ft | 415 kts | 206° |
| 2026-04-16 05:41 | 26.66193 | 115.21290 | 36012 ft | 416 kts | 206° |
| 2026-04-16 05:42 | 26.60759 | 115.19121 | 36015 ft | 415 kts | 206° |
| 2026-04-16 05:42 | 26.55234 | 115.16914 | 36017 ft | 416 kts | 206° |
| 2026-04-16 05:43 | 26.49733 | 115.14726 | 36020 ft | 417 kts | 206° |
| 2026-04-16 05:43 | 26.44273 | 115.12556 | 36015 ft | 418 kts | 206° |
| 2026-04-16 05:44 | 26.38761 | 115.10366 | 36003 ft | 417 kts | 205° |
| 2026-04-16 05:44 | 26.33208 | 115.08164 | 35994 ft | 418 kts | 205° |
| 2026-04-16 05:45 | 26.27715 | 115.05989 | 35980 ft | 418 kts | 205° |
| 2026-04-16 05:45 | 26.22214 | 115.03815 | 35975 ft | 420 kts | 206° |
| 2026-04-16 05:46 | 26.16649 | 115.01613 | 35973 ft | 420 kts | 205° |
| 2026-04-16 05:46 | 26.11116 | 114.99428 | 35983 ft | 420 kts | 206° |
| 2026-04-16 05:47 | 26.05574 | 114.97239 | 35991 ft | 421 kts | 206° |
| 2026-04-16 05:47 | 26.00024 | 114.95051 | 35991 ft | 421 kts | 205° |
| 2026-04-16 05:48 | 25.94477 | 114.92870 | 36005 ft | 419 kts | 206° |
| 2026-04-16 05:48 | 25.88935 | 114.90686 | 36005 ft | 421 kts | 206° |
| 2026-04-16 05:49 | 25.83356 | 114.88490 | 36007 ft | 420 kts | 206° |
| 2026-04-16 05:49 | 25.77704 | 114.86544 | 36003 ft | 426 kts | 200° |
| 2026-04-16 05:50 | 25.71839 | 114.85084 | 35998 ft | 430 kts | 198° |
| 2026-04-16 05:50 | 25.65963 | 114.83714 | 35995 ft | 429 kts | 199° |
| 2026-04-16 05:51 | 25.60085 | 114.82309 | 35988 ft | 428 kts | 199° |
| 2026-04-16 05:51 | 25.54235 | 114.80879 | 35981 ft | 429 kts | 199° |
| 2026-04-16 05:52 | 25.48350 | 114.79427 | 35982 ft | 430 kts | 199° |
| 2026-04-16 05:52 | 25.42484 | 114.77975 | 35979 ft | 430 kts | 199° |
| 2026-04-16 05:53 | 25.36598 | 114.76520 | 35977 ft | 430 kts | 199° |
| 2026-04-16 05:53 | 25.30710 | 114.75067 | 35975 ft | 431 kts | 199° |
| 2026-04-16 05:54 | 25.24866 | 114.73630 | 35973 ft | 430 kts | 199° |
| 2026-04-16 05:54 | 25.18940 | 114.72169 | 35978 ft | 431 kts | 199° |
| 2026-04-16 05:55 | 25.13087 | 114.70726 | 35987 ft | 430 kts | 199° |
| 2026-04-16 05:55 | 25.07211 | 114.69277 | 35998 ft | 433 kts | 199° |
| 2026-04-16 05:56 | 25.01269 | 114.67817 | 36007 ft | 434 kts | 199° |
| 2026-04-16 05:56 | 24.95370 | 114.66369 | 36015 ft | 434 kts | 199° |
| 2026-04-16 05:57 | 24.89431 | 114.64915 | 36024 ft | 433 kts | 199° |
| 2026-04-16 05:57 | 24.83526 | 114.63469 | 36024 ft | 433 kts | 199° |
| 2026-04-16 05:58 | 24.77636 | 114.62022 | 36020 ft | 433 kts | 199° |
| 2026-04-16 05:58 | 24.71783 | 114.60435 | 36020 ft | 430 kts | 204° |
| 2026-04-16 05:59 | 24.66299 | 114.57909 | 36035 ft | 422 kts | 213° |
| 2026-04-16 05:59 | 24.61172 | 114.54759 | 36044 ft | 421 kts | 216° |
| 2026-04-16 06:00 | 24.56122 | 114.51492 | 36051 ft | 421 kts | 216° |
| 2026-04-16 06:00 | 24.51045 | 114.48225 | 36064 ft | 422 kts | 216° |
| 2026-04-16 06:01 | 24.45983 | 114.44954 | 36056 ft | 420 kts | 218° |
| 2026-04-16 06:01 | 24.41657 | 114.40809 | 36053 ft | 410 kts | 234° |
| 2026-04-16 06:02 | 24.37498 | 114.32680 | 36050 ft | 406 kts | 249° |
| 2026-04-16 06:02 | 24.35413 | 114.26936 | 36046 ft | 405 kts | 250° |
| 2026-04-16 06:03 | 24.33377 | 114.21204 | 36062 ft | 406 kts | 250° |
| 2026-04-16 06:03 | 24.31304 | 114.15447 | 36064 ft | 404 kts | 249° |
| 2026-04-16 06:04 | 24.29021 | 114.09793 | 36053 ft | 406 kts | 242° |
| 2026-04-16 06:04 | 24.25390 | 114.05035 | 36039 ft | 415 kts | 224° |
| 2026-04-16 06:05 | 24.20668 | 114.01329 | 36042 ft | 419 kts | 218° |
| 2026-04-16 06:05 | 24.15730 | 113.97923 | 36059 ft | 420 kts | 217° |
| 2026-04-16 06:06 | 24.10815 | 113.94463 | 36078 ft | 418 kts | 221° |
| 2026-04-16 06:06 | 24.06347 | 113.90442 | 36076 ft | 414 kts | 226° |
| 2026-04-16 06:07 | 24.02065 | 113.86188 | 36069 ft | 415 kts | 227° |
| 2026-04-16 06:07 | 23.97801 | 113.81910 | 36050 ft | 415 kts | 226° |
| 2026-04-16 06:08 | 23.93539 | 113.77672 | 36033 ft | 416 kts | 226° |
| 2026-04-16 06:08 | 23.89231 | 113.73428 | 36021 ft | 416 kts | 226° |
| 2026-04-16 06:09 | 23.84913 | 113.69187 | 36022 ft | 417 kts | 226° |
| 2026-04-16 06:09 | 23.80635 | 113.64997 | 36018 ft | 417 kts | 226° |
| 2026-04-16 06:10 | 23.76356 | 113.60810 | 36012 ft | 417 kts | 226° |
| 2026-04-16 06:10 | 23.72108 | 113.56660 | 36002 ft | 416 kts | 226° |
| 2026-04-16 06:11 | 23.67821 | 113.52474 | 35993 ft | 417 kts | 226° |
| 2026-04-16 06:11 | 23.63462 | 113.48222 | 35987 ft | 417 kts | 226° |
| 2026-04-16 06:12 | 23.59100 | 113.43975 | 35981 ft | 417 kts | 226° |
| 2026-04-16 06:12 | 23.54639 | 113.39867 | 35904 ft | 418 kts | 221° |
| 2026-04-16 06:13 | 23.52211 | 113.38120 | 35376 ft | 413 kts | 215° |
| 2026-04-16 06:13 | 23.49653 | 113.36706 | 34497 ft | 410 kts | 209° |
| 2026-04-16 06:13 | 23.46987 | 113.35583 | 33543 ft | 408 kts | 205° |
| 2026-04-16 06:13 | 23.44326 | 113.34624 | 32616 ft | 405 kts | 203° |
| 2026-04-16 06:14 | 23.41604 | 113.33695 | 31744 ft | 402 kts | 203° |
| 2026-04-16 06:14 | 23.38940 | 113.32781 | 30882 ft | 398 kts | 203° |
| 2026-04-16 06:14 | 23.36316 | 113.31857 | 30024 ft | 394 kts | 203° |
| 2026-04-16 06:14 | 23.33727 | 113.30922 | 29169 ft | 389 kts | 204° |
| 2026-04-16 06:15 | 23.31140 | 113.29967 | 28288 ft | 385 kts | 204° |
| 2026-04-16 06:15 | 23.28623 | 113.29028 | 27415 ft | 381 kts | 204° |
| 2026-04-16 06:15 | 23.26127 | 113.28088 | 26543 ft | 378 kts | 204° |
| 2026-04-16 06:15 | 23.23654 | 113.27153 | 25672 ft | 374 kts | 204° |
| 2026-04-16 06:16 | 23.21198 | 113.26223 | 24802 ft | 371 kts | 203° |
| 2026-04-16 06:16 | 23.18759 | 113.25296 | 23929 ft | 368 kts | 203° |
| 2026-04-16 06:16 | 23.16326 | 113.24425 | 23045 ft | 365 kts | 200° |
| 2026-04-16 06:16 | 23.13839 | 113.23802 | 22169 ft | 366 kts | 191° |
| 2026-04-16 06:17 | 23.11301 | 113.23643 | 21318 ft | 367 kts | 182° |
| 2026-04-16 06:17 | 23.08750 | 113.23917 | 20462 ft | 368 kts | 174° |
| 2026-04-16 06:17 | 23.06251 | 113.24504 | 19614 ft | 368 kts | 169° |
| 2026-04-16 06:17 | 23.03793 | 113.25400 | 18756 ft | 369 kts | 161° |
| 2026-04-16 06:18 | 23.01523 | 113.26696 | 17915 ft | 371 kts | 152° |
| 2026-04-16 06:18 | 22.99430 | 113.28374 | 17073 ft | 372 kts | 143° |
| 2026-04-16 06:18 | 22.97534 | 113.30305 | 16255 ft | 371 kts | 137° |
| 2026-04-16 06:18 | 22.95899 | 113.32429 | 15434 ft | 371 kts | 128° |
| 2026-04-16 06:19 | 22.94511 | 113.34799 | 14614 ft | 369 kts | 122° |
| 2026-04-16 06:19 | 22.93294 | 113.37234 | 13790 ft | 366 kts | 118° |
| 2026-04-16 06:19 | 22.92148 | 113.39700 | 12943 ft | 362 kts | 117° |
| 2026-04-16 06:19 | 22.91043 | 113.42116 | 12097 ft | 359 kts | 117° |
| 2026-04-16 06:20 | 22.89934 | 113.44518 | 11267 ft | 355 kts | 118° |
| 2026-04-16 06:20 | 22.88810 | 113.46918 | 10409 ft | 352 kts | 118° |
| 2026-04-16 06:20 | 22.87690 | 113.49239 | 9578 ft | 349 kts | 120° |
| 2026-04-16 06:20 | 22.86466 | 113.51532 | 8734 ft | 345 kts | 123° |
| 2026-04-16 06:21 | 22.85230 | 113.53722 | 7909 ft | 341 kts | 122° |
| 2026-04-16 06:21 | 22.84156 | 113.56007 | 7070 ft | 338 kts | 110° |
| 2026-04-16 06:21 | 22.83860 | 113.58468 | 6517 ft | 328 kts | 83° |
| 2026-04-16 06:21 | 22.84545 | 113.60816 | 5934 ft | 318 kts | 64° |
| 2026-04-16 06:22 | 22.85584 | 113.62865 | 5505 ft | 304 kts | 60° |
| 2026-04-16 06:22 | 22.86450 | 113.64881 | 5189 ft | 287 kts | 78° |
| 2026-04-16 06:22 | 22.86433 | 113.66954 | 4910 ft | 267 kts | 111° |
| 2026-04-16 06:22 | 22.85533 | 113.68665 | 4584 ft | 255 kts | 133° |
| 2026-04-16 06:23 | 22.84186 | 113.69918 | 4058 ft | 257 kts | 150° |
| 2026-04-16 06:23 | 22.82636 | 113.70827 | 3709 ft | 247 kts | 155° |
| 2026-04-16 06:23 | 22.81107 | 113.71624 | 3392 ft | 235 kts | 156° |
| 2026-04-16 06:23 | 22.79674 | 113.72387 | 3091 ft | 223 kts | 155° |
| 2026-04-16 06:24 | 22.78307 | 113.73140 | 2783 ft | 213 kts | 154° |
| 2026-04-16 06:24 | 22.77031 | 113.73901 | 2519 ft | 201 kts | 153° |
| 2026-04-16 06:24 | 22.75844 | 113.74585 | 2235 ft | 192 kts | 155° |
| 2026-04-16 06:24 | 22.74670 | 113.75213 | 1998 ft | 181 kts | 156° |
| 2026-04-16 06:25 | 22.73603 | 113.75792 | 1775 ft | 159 kts | 155° |
| 2026-04-16 06:25 | 22.72665 | 113.76307 | 1580 ft | 150 kts | 155° |
| 2026-04-16 06:25 | 22.71761 | 113.76801 | 1380 ft | 144 kts | 156° |
| 2026-04-16 06:25 | 22.70851 | 113.77292 | 1212 ft | 146 kts | 156° |
| 2026-04-16 06:26 | 22.69945 | 113.77788 | 1016 ft | 143 kts | 155° |
| 2026-04-16 06:26 | 22.69040 | 113.78281 | 832 ft | 143 kts | 156° |
| 2026-04-16 06:26 | 22.68153 | 113.78767 | 650 ft | 142 kts | 155° |
| 2026-04-16 06:26 | 22.67266 | 113.79251 | 462 ft | 141 kts | 155° |
| 2026-04-16 06:27 | 22.66369 | 113.79725 | 273 ft | 142 kts | 155° |
| 2026-04-16 06:27 | 22.65500 | 113.80205 | 97 ft | 141 kts | 156° |
| 2026-04-16 06:27 | 22.64657 | 113.80666 | 22 ft | 115 kts | 157° |
| 2026-04-16 06:27 | 22.64158 | 113.80928 | 22 ft | 49 kts | 154° |
| 2026-04-16 06:28 | 22.63932 | 113.81040 | 22 ft | 22 kts | 160° |
| 2026-04-16 06:28 | 22.63782 | 113.81058 | 22 ft | 20 kts | 183° |
| 2026-04-16 06:28 | 22.63707 | 113.81049 | 22 ft | 7 kts | 200° |
| 2026-04-16 06:28 | 22.63674 | 113.81008 | 22 ft | 7 kts | 241° |
| 2026-04-16 06:29 | 22.63639 | 113.80932 | 22 ft | 14 kts | 249° |
| 2026-04-16 06:29 | 22.63602 | 113.80835 | 22 ft | 10 kts | 244° |
| 2026-04-16 06:29 | 22.63544 | 113.80799 | 22 ft | 9 kts | 188° |
| 2026-04-16 06:29 | 22.63504 | 113.80792 | 22 ft | 0 kts | 188° |